Time;durP1;ratioP1;P1;durP2;ratioP2;P2;SDS_P1;SDS_P2;PMS_P1;PMS_P2;Temp;Humidity;BMP_temperature;BMP_pressure;BME280_temperature;BME280_humidity;BME280_pressure;Samples;Min_cycle;Max_cycle;Signal;HPM_P1;HPM_P2
2021/12/25 00:00:13;;;;;;;0.80;0.80;;;-3.00;99.90;;;;;;7251915;19;2004468;-87
2021/12/25 00:02:50;;;;;;;0.70;0.70;;;-3.30;99.90;;;;;;7311826;19;20345;-90
2021/12/25 00:05:29;;;;;;;0.80;0.80;;;-3.20;99.90;;;;;;7319594;19;20336;-82
2021/12/25 00:08:26;;;;;;;0.70;0.70;;;-3.30;99.90;;;;;;7356378;19;20924;-86
2021/12/25 00:11:04;;;;;;;0.70;0.70;;;-3.30;99.90;;;;;;7267615;19;2004285;-82
2021/12/25 00:13:51;;;;;;;2.15;0.73;;;-3.30;99.90;;;;;;7254261;19;2004348;-85
2021/12/25 00:16:23;;;;;;;0.70;0.70;;;-3.40;99.90;;;;;;7352334;19;20317;-90
2021/12/25 00:18:55;;;;;;;0.75;0.75;;;-3.30;99.90;;;;;;7332784;19;20329;-83
2021/12/25 00:22:05;;;;;;;0.60;0.60;;;-3.40;99.90;;;;;;7277275;19;2004225;-85
2021/12/25 00:24:45;;;;;;;0.77;0.77;;;-3.30;99.90;;;;;;7251905;19;2004177;-84
2021/12/25 00:32:55;;;;;;;0.70;0.70;;;-3.60;99.90;;;;;;7270586;19;2004616;-84
2021/12/25 00:35:46;;;;;;;0.82;0.82;;;-3.60;99.90;;;;;;7248780;19;2004410;-85
2021/12/25 00:38:21;;;;;;;0.60;0.60;;;-3.60;99.90;;;;;;7344274;19;20345;-89
2021/12/25 00:41:04;;;;;;;0.60;0.60;;;-3.50;99.90;;;;;;7240046;19;2004430;-84
2021/12/25 00:46:17;;;;;;;0.70;0.70;;;-3.60;99.90;;;;;;7224565;19;2004428;-84
2021/12/25 00:48:56;;;;;;;0.70;0.70;;;-3.60;99.90;;;;;;7372448;19;20344;-81
2021/12/25 00:51:39;;;;;;;0.70;0.70;;;-3.50;99.90;;;;;;7297033;19;20452;-86
2021/12/25 00:54:15;;;;;;;0.85;0.80;;;-3.50;99.90;;;;;;7348940;19;20368;-90
2021/12/25 00:56:55;;;;;;;0.70;0.70;;;-3.40;99.90;;;;;;7297100;19;20350;-81
2021/12/25 00:59:47;;;;;;;0.60;0.60;;;-3.60;99.90;;;;;;7389483;19;20345;-80
2021/12/25 01:02:13;;;;;;;0.70;0.70;;;-3.80;99.90;;;;;;7389765;19;20902;-80
2021/12/25 01:04:39;;;;;;;0.80;0.80;;;-3.70;99.90;;;;;;7386418;19;20349;-80
2021/12/25 01:07:05;;;;;;;0.75;0.75;;;-3.80;99.90;;;;;;7390457;19;20353;-80
2021/12/25 01:09:35;;;;;;;0.60;0.60;;;-3.80;99.90;;;;;;7388838;19;20337;-80
2021/12/25 01:12:03;;;;;;;0.68;0.68;;;-3.80;99.90;;;;;;7388242;19;20352;-80
2021/12/25 01:14:56;;;;;;;0.73;0.73;;;-3.90;99.90;;;;;;7389289;19;20348;-79
2021/12/25 01:26:09;;;;;;;0.70;0.70;;;-4.00;99.90;;;;;;7385856;19;20871;-80
2021/12/25 01:29:14;;;;;;;0.60;0.60;;;-4.00;99.90;;;;;;7268877;19;2004399;-80
2021/12/25 01:34:33;;;;;;;0.65;0.65;;;-4.10;99.90;;;;;;7385970;19;20686;-80
2021/12/25 01:40:47;;;;;;;0.60;0.60;;;-4.20;99.90;;;;;;7282233;19;2004421;-79
2021/12/25 01:49:29;;;;;;;0.57;0.57;;;-4.00;99.90;;;;;;7386887;19;20345;-80
2021/12/25 01:51:55;;;;;;;0.67;0.63;;;-4.10;99.90;;;;;;7386028;19;20736;-79
2021/12/25 01:54:20;;;;;;;0.63;0.63;;;-4.20;99.90;;;;;;7386261;19;21090;-80
2021/12/25 01:56:48;;;;;;;0.60;0.60;;;-4.20;99.90;;;;;;7384600;19;20360;-80
2021/12/25 01:59:16;;;;;;;1.60;0.60;;;-4.30;99.90;;;;;;7385339;19;20308;-79
2021/12/25 02:01:43;;;;;;;0.80;0.80;;;-4.30;99.90;;;;;;7367622;19;20885;-80
2021/12/25 02:04:09;;;;;;;0.60;0.60;;;-4.30;99.90;;;;;;7385972;19;20329;-80
2021/12/25 02:06:34;;;;;;;0.60;0.60;;;-4.30;99.90;;;;;;7384167;19;20905;-80
2021/12/25 02:09:00;;;;;;;0.60;0.60;;;-4.30;99.90;;;;;;7384780;19;20874;-80
2021/12/25 02:11:26;;;;;;;0.50;0.50;;;-4.30;99.90;;;;;;7387184;19;20320;-81
2021/12/25 02:13:53;;;;;;;0.80;0.70;;;-4.30;99.90;;;;;;7383192;19;20335;-79
2021/12/25 02:16:23;;;;;;;1.40;0.82;;;-4.20;99.90;;;;;;7389186;19;20324;-80
2021/12/25 02:19:07;;;;;;;0.65;0.65;;;-4.40;99.90;;;;;;7386830;19;20319;-81
2021/12/25 02:21:50;;;;;;;0.70;0.70;;;-4.50;99.90;;;;;;7284765;19;2004237;-80
2021/12/25 02:24:16;;;;;;;0.70;0.70;;;-4.60;99.90;;;;;;7389183;19;20332;-80
2021/12/25 02:26:44;;;;;;;0.77;0.77;;;-4.50;99.90;;;;;;7386462;19;20348;-80
2021/12/25 02:29:10;;;;;;;0.65;0.65;;;-4.60;99.90;;;;;;7383867;19;20880;-81
2021/12/25 02:31:36;;;;;;;0.60;0.60;;;-4.60;99.90;;;;;;7384410;19;20337;-80
2021/12/25 02:34:02;;;;;;;0.70;0.70;;;-4.60;99.90;;;;;;7361001;19;20428;-81
2021/12/25 02:36:28;;;;;;;0.60;0.60;;;-4.70;99.90;;;;;;7387423;19;20420;-81
2021/12/25 02:38:54;;;;;;;0.85;0.70;;;-4.60;99.90;;;;;;7383031;19;21039;-81
2021/12/25 02:41:20;;;;;;;0.60;0.60;;;-4.70;99.90;;;;;;7367893;19;20320;-81
2021/12/25 02:43:49;;;;;;;0.63;0.63;;;-4.80;99.90;;;;;;7378462;19;20358;-80
2021/12/25 02:46:25;;;;;;;0.60;0.60;;;-4.80;99.90;;;;;;7386045;19;20416;-80
2021/12/25 02:48:55;;;;;;;0.60;0.60;;;-4.80;99.90;;;;;;7366829;19;20345;-80
2021/12/25 02:51:21;;;;;;;0.70;0.70;;;-4.90;99.90;;;;;;7366364;19;20324;-81
2021/12/25 02:53:47;;;;;;;0.70;0.70;;;-4.90;99.90;;;;;;7383347;19;20332;-81
2021/12/25 02:56:14;;;;;;;0.65;0.65;;;-4.90;99.90;;;;;;7385164;19;20356;-80
2021/12/25 02:58:46;;;;;;;0.60;0.60;;;-4.80;99.90;;;;;;7385270;19;20344;-80
2021/12/25 03:01:14;;;;;;;0.60;0.60;;;-4.90;99.90;;;;;;7364996;19;20335;-81
2021/12/25 03:03:40;;;;;;;0.80;0.80;;;-5.00;99.90;;;;;;7384721;19;20343;-80
2021/12/25 03:06:08;;;;;;;0.55;0.55;;;-5.00;99.90;;;;;;7364655;19;20335;-80
2021/12/25 03:08:34;;;;;;;0.55;0.55;;;-5.20;99.90;;;;;;7382891;19;20315;-80
2021/12/25 03:11:06;;;;;;;0.60;0.60;;;-5.30;99.90;;;;;;7387337;19;20356;-81
2021/12/25 03:13:37;;;;;;;0.70;0.70;;;-5.20;99.90;;;;;;7345028;19;20391;-80
2021/12/25 03:16:08;;;;;;;0.70;0.70;;;-5.30;99.90;;;;;;7388938;19;20424;-81
2021/12/25 03:18:49;;;;;;;0.80;0.80;;;-5.30;99.90;;;;;;7367665;19;21020;-80
2021/12/25 03:21:19;;;;;;;5.50;0.80;;;-5.40;99.90;;;;;;7385693;19;20335;-81
2021/12/25 03:23:47;;;;;;;0.80;0.80;;;-5.40;99.90;;;;;;7385658;19;20336;-81
2021/12/25 03:26:13;;;;;;;0.70;0.70;;;-5.20;99.90;;;;;;7373373;19;20341;-80
2021/12/25 03:28:42;;;;;;;0.77;0.77;;;-5.20;99.90;;;;;;7385351;19;20337;-81
2021/12/25 03:31:19;;;;;;;0.60;0.60;;;-5.40;99.90;;;;;;7390953;19;20349;-80
2021/12/25 03:33:58;;;;;;;0.73;0.73;;;-5.60;99.90;;;;;;7385035;19;20340;-80
2021/12/25 03:36:24;;;;;;;0.70;0.70;;;-5.70;99.90;;;;;;7386049;19;20313;-81
2021/12/25 03:38:50;;;;;;;0.60;0.60;;;-5.50;99.90;;;;;;7385970;19;20424;-81
2021/12/25 03:41:17;;;;;;;0.60;0.60;;;-5.70;99.90;;;;;;7389409;19;20325;-80
2021/12/25 03:43:43;;;;;;;0.60;0.60;;;-5.60;99.90;;;;;;7384266;19;20325;-81
2021/12/25 03:46:10;;;;;;;0.60;0.60;;;-5.50;99.90;;;;;;7385184;19;20914;-81
2021/12/25 03:48:59;;;;;;;0.60;0.55;;;-5.30;99.90;;;;;;7384073;19;20894;-80
2021/12/25 03:59:57;;;;;;;0.60;0.60;;;-5.80;99.90;;;;;;7292508;19;2009284;-81
2021/12/25 04:02:30;;;;;;;0.70;0.70;;;-5.80;99.90;;;;;;7391842;19;20297;-81
2021/12/25 04:04:59;;;;;;;0.77;0.70;;;-5.80;99.90;;;;;;7392737;19;20361;-81
2021/12/25 04:10:03;;;;;;;0.60;0.60;;;-6.00;99.90;;;;;;7390672;19;20360;-81
2021/12/25 04:12:29;;;;;;;0.70;0.70;;;-6.00;99.90;;;;;;7373322;19;20345;-81
2021/12/25 04:14:56;;;;;;;0.63;0.63;;;-6.10;99.90;;;;;;7392550;19;20331;-82
2021/12/25 04:17:23;;;;;;;0.60;0.60;;;-6.20;99.90;;;;;;7393709;19;20312;-81
2021/12/25 04:19:49;;;;;;;0.68;0.68;;;-5.80;99.90;;;;;;7395851;19;20659;-81
2021/12/25 04:22:25;;;;;;;0.65;0.65;;;-5.90;99.90;;;;;;7395535;19;20316;-81
2021/12/25 04:24:52;;;;;;;0.70;0.70;;;-5.90;99.90;;;;;;7392021;19;20351;-81
2021/12/25 04:27:19;;;;;;;0.50;0.50;;;-5.70;99.90;;;;;;7376234;19;20324;-80
2021/12/25 04:49:25;;;;;;;0.60;0.60;;;-6.10;99.90;;;;;;7290909;19;2004342;-82
2021/12/25 05:03:09;;;;;;;0.73;0.73;;;-6.70;99.90;;;;;;7293112;19;2004374;-82
2021/12/25 05:05:42;;;;;;;0.70;0.70;;;-6.70;99.90;;;;;;7291764;19;2004579;-81
2021/12/25 05:08:24;;;;;;;0.60;0.60;;;-6.70;99.90;;;;;;7348641;19;20326;-81
2021/12/25 05:10:51;;;;;;;0.50;0.50;;;-6.60;99.90;;;;;;7392747;19;20309;-81
2021/12/25 05:13:19;;;;;;;0.80;0.80;;;-6.50;99.90;;;;;;7389044;19;20748;-81
2021/12/25 05:15:47;;;;;;;0.70;0.70;;;-6.50;99.90;;;;;;7371467;19;20676;-81
2021/12/25 05:18:14;;;;;;;0.68;0.68;;;-6.40;99.90;;;;;;7389575;19;20899;-81
2021/12/25 05:20:41;;;;;;;0.75;0.75;;;-6.60;99.90;;;;;;7394077;19;20657;-82
2021/12/25 05:23:08;;;;;;;0.60;0.60;;;-6.50;99.90;;;;;;7390502;19;20340;-82
2021/12/25 05:25:34;;;;;;;0.60;0.60;;;-6.50;99.90;;;;;;7381725;19;20368;-81
2021/12/25 05:28:02;;;;;;;0.60;0.60;;;-6.50;99.90;;;;;;7393852;19;20337;-81
2021/12/25 05:30:28;;;;;;;0.70;0.70;;;-6.60;99.90;;;;;;7391262;19;20812;-81
2021/12/25 05:33:13;;;;;;;0.60;0.60;;;-6.50;99.90;;;;;;7389905;19;20353;-81
2021/12/25 05:35:52;;;;;;;0.60;0.60;;;-6.60;99.90;;;;;;7389133;19;20724;-82
2021/12/25 05:38:44;;;;;;;0.60;0.60;;;-6.60;99.90;;;;;;7286026;19;2004447;-81
2021/12/25 05:41:15;;;;;;;0.60;0.60;;;-6.70;99.90;;;;;;7389794;19;20313;-82
2021/12/25 05:43:41;;;;;;;0.77;0.77;;;-6.70;99.90;;;;;;7387259;19;20336;-81
2021/12/25 05:46:07;;;;;;;0.50;0.50;;;-6.70;99.90;;;;;;7388507;19;21154;-81
2021/12/25 05:48:35;;;;;;;0.68;0.68;;;-6.70;99.90;;;;;;7387833;19;21178;-81
2021/12/25 05:51:28;;;;;;;0.70;0.70;;;-6.70;99.90;;;;;;7389922;19;20364;-81
2021/12/25 05:54:21;;;;;;;0.60;0.60;;;-6.50;99.90;;;;;;7287680;19;2004378;-82
2021/12/25 05:57:14;;;;;;;5.50;0.98;;;-6.70;99.90;;;;;;7288858;19;2004316;-81
2021/12/25 06:00:11;;;;;;;0.70;0.70;;;-6.60;99.90;;;;;;7265092;19;2004451;-81
2021/12/25 06:02:46;;;;;;;0.60;0.60;;;-6.70;99.90;;;;;;7393221;19;20379;-82
2021/12/25 06:05:19;;;;;;;0.70;0.70;;;-6.70;99.90;;;;;;7289700;19;2004428;-82
2021/12/25 06:07:45;;;;;;;1.88;0.98;;;-6.80;99.90;;;;;;7391754;19;20324;-81
2021/12/25 06:10:11;;;;;;;1.02;0.93;;;-6.90;99.90;;;;;;7384819;19;20344;-82
2021/12/25 06:12:38;;;;;;;0.80;0.80;;;-6.90;99.90;;;;;;7389524;19;20328;-81
2021/12/25 06:15:06;;;;;;;0.82;0.82;;;-6.90;99.90;;;;;;7389476;19;21019;-81
2021/12/25 06:18:08;;;;;;;0.80;0.80;;;-6.90;99.90;;;;;;7287444;19;2004477;-80
2021/12/25 06:20:38;;;;;;;0.82;0.82;;;-7.00;99.90;;;;;;7379780;19;20348;-80
2021/12/25 06:23:32;;;;;;;1.37;1.27;;;-7.00;99.90;;;;;;7367928;19;20353;-80
2021/12/25 06:26:11;;;;;;;0.70;0.70;;;-7.00;99.90;;;;;;7387890;19;20337;-81
2021/12/25 06:29:03;;;;;;;1.00;1.00;;;-7.10;99.90;;;;;;7283053;19;2004427;-80
2021/12/25 06:31:33;;;;;;;0.85;0.85;;;-7.20;99.90;;;;;;7389139;19;20332;-82
2021/12/25 06:34:06;;;;;;;1.00;0.90;;;-7.20;99.90;;;;;;7387255;19;20749;-81
2021/12/25 06:36:39;;;;;;;1.13;1.02;;;-7.10;99.90;;;;;;7386328;19;20351;-81
2021/12/25 06:39:23;;;;;;;0.70;0.70;;;-7.10;99.90;;;;;;7284570;19;2004494;-81
2021/12/25 06:41:58;;;;;;;0.80;0.80;;;-7.10;99.90;;;;;;7388654;19;20321;-82
2021/12/25 06:44:25;;;;;;;1.02;1.02;;;-7.10;99.90;;;;;;7383780;19;20321;-82
2021/12/25 06:46:52;;;;;;;1.27;1.17;;;-7.20;99.90;;;;;;7386408;19;20317;-82
2021/12/25 06:49:18;;;;;;;0.90;0.90;;;-7.10;99.90;;;;;;7385909;19;20312;-81
2021/12/25 06:52:02;;;;;;;3.00;2.70;;;-7.10;99.90;;;;;;7284665;19;2004453;-81
2021/12/25 06:54:54;;;;;;;2.10;1.90;;;-7.20;99.90;;;;;;7261976;19;2004385;-82
2021/12/25 06:57:48;;;;;;;1.93;1.57;;;-7.30;99.90;;;;;;7385647;19;20669;-81
2021/12/25 07:00:16;;;;;;;1.20;1.20;;;-7.20;99.90;;;;;;7385637;19;20347;-80
2021/12/25 07:02:43;;;;;;;1.63;1.52;;;-7.30;99.90;;;;;;7385400;19;20373;-82
2021/12/25 07:05:27;;;;;;;1.80;1.70;;;-7.30;99.90;;;;;;7385247;19;20420;-81
2021/12/25 07:08:12;;;;;;;1.83;1.73;;;-7.30;99.90;;;;;;7384923;19;20851;-81
2021/12/25 07:10:49;;;;;;;1.20;1.20;;;-7.30;99.90;;;;;;7385776;19;20337;-81
2021/12/25 07:13:24;;;;;;;1.55;1.45;;;-7.10;99.90;;;;;;7384190;19;20897;-81
2021/12/25 07:15:59;;;;;;;1.70;1.60;;;-7.20;99.90;;;;;;7386679;19;20405;-81
2021/12/25 07:18:35;;;;;;;1.55;1.45;;;-7.20;99.90;;;;;;7385637;19;20348;-81
2021/12/25 07:24:16;;;;;;;2.42;2.22;;;-7.20;99.90;;;;;;7266607;19;2004374;-79
2021/12/25 07:26:50;;;;;;;1.73;1.63;;;-7.20;99.90;;;;;;7383237;19;20300;-81
2021/12/25 07:29:24;;;;;;;2.17;1.98;;;-7.20;99.90;;;;;;7384351;19;20308;-82
2021/12/25 07:32:08;;;;;;;2.63;2.17;;;-7.20;99.90;;;;;;7373140;19;20727;-82
2021/12/25 07:34:33;;;;;;;2.60;2.03;;;-7.20;99.90;;;;;;7393509;19;20317;-81
2021/12/25 07:37:00;;;;;;;2.93;2.67;;;-7.30;99.90;;;;;;7392822;19;20883;-80
2021/12/25 07:39:26;;;;;;;1.73;1.63;;;-7.20;99.90;;;;;;7390186;19;20343;-80
2021/12/25 07:41:55;;;;;;;2.42;2.22;;;-7.40;99.90;;;;;;7393032;19;20854;-80
2021/12/25 07:44:26;;;;;;;1.90;1.80;;;-7.20;99.90;;;;;;7389764;19;20296;-81
2021/12/25 07:46:54;;;;;;;1.65;1.55;;;-7.30;99.90;;;;;;7387305;19;20301;-80
2021/12/25 07:49:20;;;;;;;2.58;2.38;;;-7.30;99.90;;;;;;7387337;19;20419;-80
2021/12/25 07:51:46;;;;;;;3.72;2.55;;;-7.40;99.90;;;;;;7391704;19;20336;-81
2021/12/25 07:54:12;;;;;;;2.22;1.90;;;-7.40;99.90;;;;;;7385501;19;20321;-81
2021/12/25 07:56:38;;;;;;;2.08;1.92;;;-7.40;99.90;;;;;;7389904;19;20341;-80
2021/12/25 07:59:05;;;;;;;2.47;2.28;;;-7.30;99.90;;;;;;7387543;19;20336;-80
2021/12/25 08:01:34;;;;;;;1.98;1.88;;;-7.40;99.90;;;;;;7382627;19;20878;-80
2021/12/25 08:04:01;;;;;;;2.80;2.50;;;-7.20;99.90;;;;;;7386369;19;20399;-81
2021/12/25 08:06:27;;;;;;;3.20;2.17;;;-7.20;99.90;;;;;;7390127;19;20320;-81
2021/12/25 08:08:56;;;;;;;2.17;2.08;;;-7.10;99.90;;;;;;7386885;19;21185;-81
2021/12/25 08:11:22;;;;;;;1.90;1.80;;;-7.10;99.90;;;;;;7390124;19;20339;-81
2021/12/25 08:13:48;;;;;;;3.05;1.85;;;-7.10;99.90;;;;;;7386693;19;20335;-81
2021/12/25 08:16:14;;;;;;;2.95;2.00;;;-6.90;99.90;;;;;;7389454;19;20397;-80
2021/12/25 08:18:40;;;;;;;2.22;1.50;;;-7.00;99.90;;;;;;7390791;19;20348;-82
2021/12/25 08:21:25;;;;;;;1.40;1.30;;;-6.90;99.90;;;;;;7288134;19;2004419;-82
2021/12/25 08:24:23;;;;;;;1.02;1.02;;;-6.90;99.90;;;;;;7285000;19;2004441;-80
2021/12/25 08:27:08;;;;;;;1.00;1.00;;;-7.00;99.90;;;;;;7290026;19;2004389;-80
2021/12/25 08:29:55;;;;;;;1.50;1.40;;;-7.00;99.90;;;;;;7390393;19;20320;-81
2021/12/25 08:32:39;;;;;;;1.33;1.23;;;-6.90;99.90;;;;;;7388428;19;20316;-81
2021/12/25 08:35:43;;;;;;;2.13;1.27;;;-6.80;99.90;;;;;;7286609;19;2004439;-81
2021/12/25 08:38:11;;;;;;;1.57;1.47;;;-6.70;99.90;;;;;;7390784;19;20365;-81
2021/12/25 08:40:38;;;;;;;1.40;1.30;;;-6.70;99.90;;;;;;7386595;19;21001;-80
2021/12/25 08:43:07;;;;;;;1.00;1.00;;;-6.70;99.90;;;;;;7365805;19;20339;-79
2021/12/25 08:45:41;;;;;;;3.85;1.30;;;-6.70;99.90;;;;;;7385544;19;20371;-80
2021/12/25 08:48:19;;;;;;;1.17;1.15;;;-6.70;99.90;;;;;;7388898;19;20324;-80
2021/12/25 08:50:50;;;;;;;1.27;1.20;;;-6.60;99.90;;;;;;7285742;19;2004416;-79
2021/12/25 08:53:16;;;;;;;1.00;1.00;;;-6.50;99.90;;;;;;7384280;19;21282;-79
2021/12/25 08:55:43;;;;;;;0.90;0.90;;;-6.50;99.90;;;;;;7384603;19;20377;-80
2021/12/25 08:58:09;;;;;;;0.80;0.80;;;-6.60;99.90;;;;;;7381939;19;20324;-79
2021/12/25 09:00:35;;;;;;;1.07;1.07;;;-6.40;99.90;;;;;;7385448;19;20720;-79
2021/12/25 09:03:01;;;;;;;1.70;1.38;;;-6.30;99.90;;;;;;7384745;19;20348;-79
2021/12/25 09:05:26;;;;;;;1.08;1.08;;;-6.40;99.90;;;;;;7385172;19;20855;-79
2021/12/25 09:07:53;;;;;;;1.45;1.35;;;-6.30;99.90;;;;;;7383023;19;20364;-80
2021/12/25 09:10:18;;;;;;;1.10;1.10;;;-6.30;99.90;;;;;;7382496;19;20333;-80
2021/12/25 09:12:45;;;;;;;1.25;1.15;;;-6.20;99.90;;;;;;7386380;19;20666;-80
2021/12/25 09:15:11;;;;;;;1.08;1.08;;;-6.20;99.90;;;;;;7386048;19;20333;-80
2021/12/25 09:17:38;;;;;;;1.00;1.00;;;-6.10;99.90;;;;;;7386910;19;20360;-80
2021/12/25 09:20:05;;;;;;;0.93;0.93;;;-6.10;99.90;;;;;;7386449;19;21146;-79
2021/12/25 09:22:31;;;;;;;0.77;0.77;;;-6.00;99.90;;;;;;7382489;19;20360;-79
2021/12/25 09:25:00;;;;;;;2.00;1.10;;;-6.00;99.90;;;;;;7383643;19;20332;-80
2021/12/25 09:27:31;;;;;;;1.05;1.00;;;-5.90;99.90;;;;;;7384266;19;20987;-81
2021/12/25 09:30:05;;;;;;;1.00;1.00;;;-5.90;99.90;;;;;;7384631;19;20341;-80
2021/12/25 09:32:33;;;;;;;1.15;1.13;;;-5.70;99.90;;;;;;7380282;19;20324;-81
2021/12/25 09:35:01;;;;;;;0.90;0.90;;;-5.80;99.90;;;;;;7368099;19;20348;-84
2021/12/25 09:37:28;;;;;;;1.08;1.05;;;-5.70;99.90;;;;;;7363216;19;20889;-81
2021/12/25 09:39:55;;;;;;;0.93;0.93;;;-5.60;99.90;;;;;;7381802;19;20360;-80
2021/12/25 09:42:28;;;;;;;0.80;0.80;;;-5.40;99.90;;;;;;7379348;19;20325;-79
2021/12/25 09:45:01;;;;;;;0.98;0.98;;;-5.50;99.90;;;;;;7356850;19;20329;-79
2021/12/25 09:47:34;;;;;;;1.33;1.20;;;-5.40;99.90;;;;;;7359661;19;20389;-80
2021/12/25 09:50:02;;;;;;;1.07;1.07;;;-5.50;99.90;;;;;;7321268;19;20320;-79
2021/12/25 09:52:35;;;;;;;5.70;3.88;;;-5.30;99.90;;;;;;7338251;19;20337;-79
2021/12/25 09:55:05;;;;;;;1.85;1.70;;;-5.20;99.90;;;;;;7324865;19;20362;-78
2021/12/25 09:57:39;;;;;;;1.65;1.50;;;-5.20;99.90;;;;;;7320908;19;20340;-79
2021/12/25 10:00:12;;;;;;;2.00;1.30;;;-5.20;99.90;;;;;;7283341;19;20324;-79
2021/12/25 10:02:52;;;;;;;0.98;0.98;;;-5.10;99.90;;;;;;7317803;19;20443;-79
2021/12/25 10:05:35;;;;;;;1.30;1.05;;;-5.00;99.90;;;;;;7283617;19;20325;-80
2021/12/25 10:08:26;;;;;;;1.50;1.40;;;-5.00;99.90;;;;;;7303024;19;20351;-80
2021/12/25 10:11:02;;;;;;;1.60;1.50;;;-5.00;99.90;;;;;;7343002;19;20332;-79
2021/12/25 10:13:43;;;;;;;1.77;1.42;;;-4.90;99.90;;;;;;7385900;19;20320;-79
2021/12/25 10:16:27;;;;;;;1.35;1.27;;;-4.90;99.90;;;;;;7297928;19;20674;-79
2021/12/25 10:19:31;;;;;;;1.20;1.10;;;-5.00;99.90;;;;;;7224801;19;2004540;-79
2021/12/25 10:22:35;;;;;;;1.00;1.00;;;-4.90;99.90;;;;;;7160020;19;2004283;-79
2021/12/25 10:25:24;;;;;;;1.08;1.08;;;-4.70;99.90;;;;;;7348569;19;20658;-79
2021/12/25 10:28:22;;;;;;;3.75;1.08;;;-4.60;99.90;;;;;;7338522;19;20671;-79
2021/12/25 10:35:49;;;;;;;1.38;1.20;;;-4.50;99.90;;;;;;7343619;19;20849;-80
2021/12/25 10:58:51;;;;;;;3.40;3.10;;;-4.20;99.90;;;;;;7351867;19;20313;-82
2021/12/25 11:01:17;;;;;;;2.72;2.42;;;-4.20;99.90;;;;;;7388381;19;20320;-81
2021/12/25 11:03:50;;;;;;;1.88;1.77;;;-4.10;99.90;;;;;;7382523;19;20336;-83
2021/12/25 11:07:06;;;;;;;1.58;1.48;;;-4.40;99.90;;;;;;7350299;19;20707;-86
2021/12/25 11:19:07;;;;;;;1.42;1.33;;;-4.00;99.90;;;;;;7343151;19;20369;-82
2021/12/25 11:29:33;;;;;;;2.03;1.90;;;-3.40;99.90;;;;;;7251564;19;2003512;-78
2021/12/25 11:32:13;;;;;;;1.65;1.55;;;-2.80;99.90;;;;;;7367649;19;20801;-79
2021/12/25 11:39:37;;;;;;;3.17;2.00;;;-2.20;99.90;;;;;;7299635;19;2004887;-78
2021/12/25 11:47:06;;;;;;;2.67;1.15;;;-2.70;99.90;;;;;;7389947;19;20339;-79
2021/12/25 11:49:53;;;;;;;1.50;1.40;;;-2.60;99.90;;;;;;7358373;19;20738;-80
2021/12/25 11:56:48;;;;;;;2.03;1.90;;;-2.70;99.90;;;;;;7250081;19;2004684;-78
2021/12/25 11:59:26;;;;;;;1.63;1.52;;;-2.90;99.90;;;;;;7154792;19;2004437;-78
2021/12/25 12:02:03;;;;;;;1.27;1.20;;;-3.10;99.90;;;;;;7350320;19;20756;-79
2021/12/25 12:04:38;;;;;;;1.35;1.25;;;-3.10;99.90;;;;;;7316591;19;20352;-78
2021/12/25 12:07:22;;;;;;;1.52;1.42;;;-3.00;99.90;;;;;;7381512;19;20400;-78
2021/12/25 12:11:02;;;;;;;1.42;1.35;;;-2.80;99.90;;;;;;7173593;19;2004604;-79
2021/12/25 12:14:26;;;;;;;1.38;1.27;;;-2.70;99.90;;;;;;7363854;19;20339;-82
2021/12/25 12:17:47;;;;;;;1.33;1.23;;;-2.60;99.90;;;;;;7272939;19;2004532;-79
2021/12/25 12:21:06;;;;;;;1.65;1.55;;;-2.60;99.90;;;;;;7245397;19;2004285;-79
2021/12/25 12:35:02;;;;;;;1.50;1.40;;;-1.90;99.90;;;;;;7295289;19;2004831;-79
2021/12/25 12:38:37;;;;;;;1.92;1.58;;;-1.80;99.90;;;;;;7297491;19;2004391;-79
2021/12/25 12:41:57;;;;;;;2.42;1.80;;;-1.70;99.90;;;;;;7278318;19;20427;-79
2021/12/25 12:44:53;;;;;;;1.48;1.38;;;-1.80;99.90;;;;;;7324267;19;20356;-79
2021/12/25 12:48:23;;;;;;;2.10;1.75;;;-1.80;99.90;;;;;;7396397;19;20377;-78
2021/12/25 13:23:33;;;;;;;1.60;1.48;;;-1.80;99.90;;;;;;7392288;19;20340;-82
2021/12/25 13:26:07;;;;;;;1.80;1.70;;;-1.80;99.90;;;;;;7394922;19;20349;-81
2021/12/25 13:28:38;;;;;;;1.70;1.60;;;-1.70;99.90;;;;;;7372519;19;20341;-83
2021/12/25 13:31:07;;;;;;;1.67;1.58;;;-1.70;99.90;;;;;;7396044;19;20664;-82
2021/12/25 13:33:35;;;;;;;2.05;1.85;;;-1.50;99.90;;;;;;7395503;19;20345;-83
2021/12/25 13:36:09;;;;;;;1.55;1.45;;;-1.60;99.90;;;;;;7397002;19;20348;-83
2021/12/25 13:42:11;;;;;;;2.33;1.73;;;-2.10;99.90;;;;;;7295553;19;20720;-83
2021/12/25 13:46:20;;;;;;;5.88;1.63;;;-2.10;99.90;;;;;;7170080;19;20324;-84
2021/12/25 15:05:02;;;;;;;1.45;1.35;;;-4.00;99.90;;;;;;7318062;19;20420;-89
2021/12/25 15:07:50;;;;;;;1.67;1.58;;;-4.10;99.90;;;;;;7338666;19;20317;-88
2021/12/25 15:10:53;;;;;;;2.92;2.33;;;-4.20;99.90;;;;;;7227092;19;2003993;-87
2021/12/25 15:14:22;;;;;;;38.28;27.83;;;-4.30;99.90;;;;;;7193294;19;2024224;-92
2021/12/25 15:26:39;;;;;;;1.90;1.80;;;-4.70;99.90;;;;;;7265111;19;2004372;-85
2021/12/25 15:29:40;;;;;;;2.10;1.90;;;-4.90;99.90;;;;;;7374148;19;20340;-84
2021/12/25 15:32:26;;;;;;;3.00;2.50;;;-4.90;99.90;;;;;;7350932;19;20355;-87
2021/12/25 15:38:27;;;;;;;3.53;2.55;;;-5.10;99.90;;;;;;7292362;19;2004375;-84
2021/12/25 15:41:09;;;;;;;2.85;2.60;;;-5.10;99.90;;;;;;7415739;19;20332;-89
2021/12/25 15:44:36;;;;;;;3.05;2.20;;;-5.20;99.90;;;;;;7425421;19;20362;-85
2021/12/25 15:50:53;;;;;;;3.30;3.00;;;-5.30;99.90;;;;;;7259638;19;2004517;-86
2021/12/25 15:54:04;;;;;;;2.75;2.55;;;-5.50;99.90;;;;;;7175383;19;2004022;-85
2021/12/25 15:57:26;;;;;;;3.22;2.92;;;-5.50;99.90;;;;;;7431093;19;20341;-83
2021/12/25 16:03:23;;;;;;;3.13;2.83;;;-5.60;99.90;;;;;;7341865;19;20324;-81
2021/12/25 16:05:51;;;;;;;4.40;2.80;;;-5.60;99.90;;;;;;7398491;19;20309;-80
2021/12/25 16:08:18;;;;;;;4.43;3.20;;;-5.70;99.90;;;;;;7388336;19;20368;-79
2021/12/25 16:10:45;;;;;;;3.20;2.90;;;-5.70;99.90;;;;;;7399273;19;20348;-79
2021/12/25 16:27:46;;;;;;;4.05;3.55;;;-6.20;99.90;;;;;;7379441;19;20319;-81
2021/12/25 16:30:39;;;;;;;4.53;3.88;;;-6.10;99.90;;;;;;7394388;19;20327;-81
2021/12/25 16:33:06;;;;;;;4.15;3.65;;;-6.20;99.90;;;;;;7379597;19;20764;-80
2021/12/25 16:35:35;;;;;;;7.20;4.00;;;-6.20;99.90;;;;;;7381571;19;20332;-80
2021/12/25 16:38:02;;;;;;;3.40;3.10;;;-6.30;99.90;;;;;;7383154;19;20409;-80
2021/12/25 16:40:27;;;;;;;2.58;2.38;;;-6.50;99.90;;;;;;7384689;19;20879;-80
2021/12/25 16:42:53;;;;;;;4.10;3.15;;;-6.50;99.90;;;;;;7384980;19;20352;-82
2021/12/25 16:45:19;;;;;;;3.83;3.00;;;-6.50;99.90;;;;;;7382720;19;20336;-81
2021/12/25 16:47:45;;;;;;;3.53;3.23;;;-6.50;99.90;;;;;;7382691;19;20352;-81
2021/12/25 16:50:11;;;;;;;4.07;3.70;;;-6.50;99.90;;;;;;7382273;19;20425;-78
2021/12/25 16:52:37;;;;;;;3.33;3.03;;;-6.70;99.90;;;;;;7381155;19;20349;-78
2021/12/25 16:55:03;;;;;;;4.33;3.30;;;-6.70;99.90;;;;;;7377337;19;20341;-78
2021/12/25 16:57:29;;;;;;;3.73;3.43;;;-6.70;99.90;;;;;;7383299;19;20371;-77
2021/12/25 16:59:55;;;;;;;4.93;4.30;;;-6.70;99.90;;;;;;7361312;19;20320;-77
2021/12/25 17:02:25;;;;;;;4.35;3.95;;;-6.80;99.90;;;;;;7376791;19;20420;-77
2021/12/25 17:04:53;;;;;;;3.90;3.60;;;-6.90;99.90;;;;;;7376177;19;20320;-77
2021/12/25 17:07:19;;;;;;;4.27;3.27;;;-7.00;99.90;;;;;;7380258;19;20411;-77
2021/12/25 17:09:47;;;;;;;3.90;3.50;;;-7.00;99.90;;;;;;7382440;19;20353;-79
2021/12/25 17:12:16;;;;;;;3.60;3.30;;;-7.10;99.90;;;;;;7380751;19;20370;-81
2021/12/25 17:14:42;;;;;;;7.75;4.55;;;-7.10;99.90;;;;;;7361521;19;20312;-78
2021/12/25 17:17:09;;;;;;;3.78;3.10;;;-7.10;99.90;;;;;;7367046;19;20347;-79
2021/12/25 17:19:36;;;;;;;4.20;3.80;;;-7.10;99.90;;;;;;7382730;19;20369;-80
2021/12/25 17:22:03;;;;;;;5.20;4.70;;;-7.10;99.90;;;;;;7382886;19;20340;-82
2021/12/25 17:24:33;;;;;;;4.28;3.88;;;-7.10;99.90;;;;;;7342703;19;20341;-80
2021/12/25 17:27:06;;;;;;;5.25;4.40;;;-7.10;99.90;;;;;;7359958;19;20838;-80
2021/12/25 17:29:38;;;;;;;5.10;4.00;;;-7.20;99.90;;;;;;7362224;19;20886;-80
2021/12/25 17:32:20;;;;;;;5.97;3.88;;;-7.20;99.90;;;;;;7385570;19;20340;-78
2021/12/25 17:34:49;;;;;;;4.88;4.43;;;-7.20;99.90;;;;;;7383196;19;20356;-79
2021/12/25 17:37:17;;;;;;;5.28;4.47;;;-7.30;99.90;;;;;;7385278;19;20328;-82
2021/12/25 17:39:52;;;;;;;8.20;6.32;;;-7.20;99.90;;;;;;7349512;19;20962;-79
2021/12/25 17:42:19;;;;;;;5.78;5.05;;;-7.40;99.90;;;;;;7374883;19;20346;-82
2021/12/25 17:44:53;;;;;;;6.75;5.45;;;-7.30;99.90;;;;;;7318498;19;20882;-82
2021/12/25 17:47:21;;;;;;;7.97;5.65;;;-7.40;99.90;;;;;;7363166;19;20368;-81
2021/12/25 17:49:48;;;;;;;9.05;6.43;;;-7.50;99.90;;;;;;7342944;19;20400;-81
2021/12/25 17:52:17;;;;;;;14.97;9.87;;;-7.50;99.90;;;;;;7360253;19;20356;-81
2021/12/25 17:54:44;;;;;;;12.88;9.48;;;-7.50;99.90;;;;;;7373287;19;20413;-81
2021/12/25 17:57:14;;;;;;;7.70;6.90;;;-7.50;99.90;;;;;;7384569;19;21209;-81
2021/12/25 17:59:42;;;;;;;16.52;9.98;;;-7.50;99.90;;;;;;7378884;19;20352;-81
2021/12/25 18:02:11;;;;;;;14.95;9.23;;;-7.50;99.90;;;;;;7381507;19;20324;-81
2021/12/25 18:04:37;;;;;;;9.27;6.97;;;-7.70;99.90;;;;;;7380993;19;20324;-81
2021/12/25 18:07:04;;;;;;;13.20;7.30;;;-7.70;99.90;;;;;;7364064;19;20899;-81
2021/12/25 18:09:32;;;;;;;12.88;8.77;;;-7.50;99.90;;;;;;7359617;19;20369;-81
2021/12/25 18:12:01;;;;;;;13.90;9.45;;;-7.60;99.90;;;;;;7381880;19;20347;-81
2021/12/25 18:14:30;;;;;;;17.45;11.48;;;-7.60;99.90;;;;;;7383086;19;20363;-81